Time;durP1;ratioP1;P1;durP2;ratioP2;P2;SDS_P1;SDS_P2;PMS_P1;PMS_P2;Temp;Humidity;BMP_temperature;BMP_pressure;BME280_temperature;BME280_humidity;BME280_pressure;Samples;Min_cycle;Max_cycle;Signal;HPM_P1;HPM_P2
2023/02/15 00:01:22;;;;;;;44.75;18.55;;;;;;;4.42;76.31;101192.38;4996338;28;20077;-43
2023/02/15 00:03:50;;;;;;;54.95;21.63;;;;;;;4.40;76.34;101194.00;4986869;28;20389;-43
2023/02/15 00:06:17;;;;;;;53.30;19.27;;;;;;;4.37;75.91;101190.50;4982035;28;20101;-43
2023/02/15 00:08:43;;;;;;;45.50;18.10;;;;;;;4.36;76.23;101188.72;4990460;28;20133;-42
2023/02/15 00:11:13;;;;;;;48.10;19.63;;;;;;;4.34;76.58;101186.91;4984656;28;20058;-41
2023/02/15 00:13:41;;;;;;;51.53;19.92;;;;;;;4.32;76.30;101181.72;4989446;28;20042;-42
2023/02/15 00:16:11;;;;;;;44.38;17.83;;;;;;;4.31;76.17;101179.09;4980933;28;20133;-42
2023/02/15 00:18:39;;;;;;;54.05;20.10;;;;;;;4.29;76.53;101173.91;4984874;28;20050;-41
2023/02/15 00:21:08;;;;;;;52.08;18.88;;;;;;;4.28;76.42;101174.72;4986411;28;20074;-42
2023/02/15 00:23:35;;;;;;;57.03;19.20;;;;;;;4.26;76.62;101166.09;4982853;28;20848;-42
2023/02/15 00:28:40;;;;;;;54.63;23.02;;;;;;;4.19;76.35;101159.81;5011348;27;20787;-42
2023/02/15 00:31:10;;;;;;;50.67;20.58;;;;;;;4.16;76.77;101163.97;4996812;28;20124;-42
2023/02/15 00:33:38;;;;;;;47.80;21.63;;;;;;;4.14;76.13;101160.44;4996377;28;20053;-42
2023/02/15 00:36:09;;;;;;;49.80;21.52;;;;;;;4.13;76.46;101156.13;4995316;28;20133;-42
2023/02/15 00:38:36;;;;;;;55.22;22.25;;;;;;;4.09;75.86;101143.19;4994556;28;20097;-43
2023/02/15 00:41:05;;;;;;;55.00;21.50;;;;;;;4.08;76.49;101141.44;4992677;28;20057;-42
2023/02/15 00:43:33;;;;;;;51.47;21.20;;;;;;;4.06;76.46;101143.03;4992384;28;20498;-42
2023/02/15 00:46:00;;;;;;;49.35;19.65;;;;;;;4.05;76.63;101131.03;4998415;28;20129;-42
2023/02/15 00:48:27;;;;;;;53.83;20.95;;;;;;;4.03;76.21;101127.56;4998941;28;20561;-43
2023/02/15 00:50:57;;;;;;;53.08;21.08;;;;;;;4.02;76.60;101120.66;4991651;28;20052;-42
2023/02/15 00:53:26;;;;;;;52.38;20.65;;;;;;;4.01;76.44;101118.91;4991441;28;20087;-42
2023/02/15 00:55:52;;;;;;;56.63;23.65;;;;;;;4.00;76.58;101112.03;4989775;28;20074;-42
2023/02/15 00:58:19;;;;;;;52.63;22.13;;;;;;;4.00;76.39;101112.03;4989955;28;20101;-42
2023/02/15 01:00:47;;;;;;;62.50;23.00;;;;;;;4.00;76.54;101101.78;5022998;28;20559;-42
2023/02/15 01:03:15;;;;;;;52.85;20.30;;;;;;;4.01;76.69;101103.53;4995689;28;20224;-42
2023/02/15 01:05:42;;;;;;;55.25;21.55;;;;;;;4.00;76.73;101091.53;4993996;28;20042;-42
2023/02/15 01:08:09;;;;;;;57.28;19.90;;;;;;;3.99;76.79;101094.91;4995803;28;20694;-42
2023/02/15 01:10:36;;;;;;;51.47;21.42;;;;;;;3.99;76.66;101094.91;4993528;28;20078;-42
2023/02/15 01:13:02;;;;;;;52.42;20.52;;;;;;;3.99;76.81;101089.78;4996691;28;20104;-42
2023/02/15 01:15:29;;;;;;;53.75;21.00;;;;;;;3.97;76.88;101081.16;4997648;28;20081;-42
2023/02/15 01:17:56;;;;;;;56.35;22.50;;;;;;;3.95;76.80;101067.41;4995798;28;20302;-42
2023/02/15 01:20:26;;;;;;;48.58;19.73;;;;;;;3.93;76.14;101071.59;4999154;28;20049;-42
2023/02/15 01:22:53;;;;;;;49.58;20.13;;;;;;;3.91;76.64;101065.50;4996123;28;20167;-42
2023/02/15 01:25:22;;;;;;;53.83;20.25;;;;;;;3.87;76.61;101064.53;4996547;28;20050;-42
2023/02/15 01:27:49;;;;;;;45.35;19.75;;;;;;;3.84;76.61;101065.28;4990668;28;20094;-42
2023/02/15 01:30:16;;;;;;;52.45;19.33;;;;;;;3.82;76.29;101064.31;4998135;28;20069;-42
2023/02/15 01:32:43;;;;;;;54.40;20.17;;;;;;;3.81;76.89;101065.13;4996946;28;20057;-42
2023/02/15 01:35:11;;;;;;;52.00;19.27;;;;;;;3.81;76.38;101075.38;4998581;28;20054;-42
2023/02/15 01:37:38;;;;;;;55.42;20.10;;;;;;;3.79;76.27;101066.78;5006301;28;20137;-42
2023/02/15 01:40:07;;;;;;;49.67;18.88;;;;;;;3.80;76.46;101067.63;4998361;28;20061;-42
2023/02/15 01:42:34;;;;;;;49.42;19.42;;;;;;;3.79;76.26;101066.78;4976820;28;20042;-42
2023/02/15 01:45:04;;;;;;;47.08;19.02;;;;;;;3.79;76.95;101056.53;4979769;28;20050;-42
2023/02/15 01:47:43;;;;;;;46.47;18.98;;;;;;;3.78;76.78;101054.75;4977488;28;20556;-42
2023/02/15 01:53:03;;;;;;;46.08;20.95;;;;;;;3.77;76.82;101058.13;5019392;27;20869;-43
2023/02/15 01:55:39;;;;;;;50.35;20.52;;;;;;;3.76;76.64;101051.28;5009275;28;20096;-43
2023/02/15 01:58:07;;;;;;;50.13;20.85;;;;;;;3.77;76.65;101053.00;5000979;28;20081;-42
2023/02/15 02:00:34;;;;;;;54.72;21.55;;;;;;;3.78;77.15;101049.63;4998452;28;20192;-42
2023/02/15 02:03:02;;;;;;;47.67;19.38;;;;;;;3.78;76.68;101048.78;5008893;28;20151;-42
2023/02/15 02:05:30;;;;;;;53.35;18.95;;;;;;;3.79;77.71;101051.41;5000758;28;20093;-43
2023/02/15 02:07:59;;;;;;;48.67;19.73;;;;;;;3.78;76.63;101041.94;4999399;28;20129;-41
2023/02/15 02:10:27;;;;;;;51.53;18.05;;;;;;;3.79;76.66;101040.25;4997703;28;20414;-42
2023/02/15 02:12:59;;;;;;;53.20;21.70;;;;;;;3.77;76.61;101042.75;5009077;28;20052;-42
2023/02/15 02:15:52;;;;;;;51.38;21.48;;;;;;;3.72;76.69;101037.44;4997446;28;20069;-42
2023/02/15 02:29:47;;;;;;;49.17;19.33;;;;;;;3.52;76.25;101016.13;5095542;27;20392;-42
2023/02/15 02:40:23;;;;;;;51.35;20.52;;;;;;;3.50;76.82;100994.69;5031999;27;20774;-42
2023/02/15 02:42:59;;;;;;;44.65;18.08;;;;;;;3.46;77.11;100990.25;5015922;28;20650;-42
2023/02/15 02:45:35;;;;;;;56.15;21.48;;;;;;;3.45;76.98;100985.94;5017384;28;20057;-42
2023/02/15 02:48:08;;;;;;;47.22;19.17;;;;;;;3.44;76.52;100986.75;5012131;28;20390;-42
2023/02/15 02:50:34;;;;;;;48.75;19.25;;;;;;;3.45;76.42;100978.25;5020174;28;20104;-42
2023/02/15 02:53:01;;;;;;;48.78;18.67;;;;;;;3.46;77.34;100974.88;5016713;28;20054;-42
2023/02/15 02:55:36;;;;;;;48.60;20.63;;;;;;;3.46;76.53;100974.88;5015037;28;20045;-42
2023/02/15 03:06:12;;;;;;;57.25;20.75;;;;;;;3.58;77.74;100960.00;5086194;27;20388;-42
2023/02/15 03:08:44;;;;;;;55.70;19.92;;;;;;;3.53;76.86;100948.72;5056934;28;20103;-42
2023/02/15 03:11:11;;;;;;;53.20;18.45;;;;;;;3.47;77.34;100951.00;5076836;28;20139;-42
2023/02/15 03:13:39;;;;;;;54.30;19.95;;;;;;;3.43;76.96;100939.78;5078474;27;20920;-42
2023/02/15 03:19:05;;;;;;;51.17;18.60;;;;;;;3.32;77.68;100917.97;5102214;27;20285;-42
2023/02/15 03:22:03;;;;;;;52.55;19.30;;;;;;;3.27;77.51;100917.78;5077301;28;20109;-42
2023/02/15 03:27:17;;;;;;;50.65;20.55;;;;;;;3.14;77.14;100907.84;5045727;28;20406;-42
2023/02/15 03:29:53;;;;;;;56.40;22.25;;;;;;;3.08;77.16;100906.75;4997257;28;20055;-41
2023/02/15 03:32:21;;;;;;;51.65;20.52;;;;;;;3.06;77.26;100905.84;5018036;28;20094;-42
2023/02/15 03:34:48;;;;;;;52.25;20.88;;;;;;;3.04;77.26;100904.88;5015093;28;20108;-42
2023/02/15 03:43:08;;;;;;;50.55;17.77;;;;;;;2.93;77.57;100901.00;5068913;28;20106;-42
2023/02/15 03:45:38;;;;;;;43.10;16.60;;;;;;;2.90;77.63;100900.91;5052588;28;20072;-42
2023/02/15 03:48:08;;;;;;;51.90;17.60;;;;;;;2.88;76.33;100897.38;5057036;28;20260;-42
2023/02/15 03:53:25;;;;;;;46.08;17.65;;;;;;;2.79;76.86;100888.50;5056270;28;20097;-42
2023/02/15 03:55:54;;;;;;;49.78;17.70;;;;;;;2.77;76.52;100892.69;5057317;28;20076;-42
2023/02/15 04:04:17;;;;;;;44.40;16.95;;;;;;;2.70;76.28;100883.88;5088156;28;20417;-42
2023/02/15 04:06:44;;;;;;;40.30;14.90;;;;;;;2.73;77.38;100870.31;5072669;28;20648;-41
2023/02/15 04:11:59;;;;;;;45.10;16.27;;;;;;;2.79;76.94;100870.59;5056630;28;20382;-42
2023/02/15 04:17:12;;;;;;;44.65;17.17;;;;;;;2.82;76.60;100873.31;5075524;28;20520;-41
2023/02/15 04:25:13;;;;;;;42.85;16.23;;;;;;;2.85;76.66;100874.22;5076648;28;20098;-41
2023/02/15 04:27:43;;;;;;;47.15;16.67;;;;;;;2.88;77.26;100859.88;5080129;28;20041;-41
2023/02/15 04:30:11;;;;;;;43.47;17.55;;;;;;;2.91;77.11;100851.47;5076911;28;20048;-41
2023/02/15 04:32:38;;;;;;;48.30;18.45;;;;;;;2.94;76.90;100849.03;5077975;28;20131;-42
2023/02/15 04:35:06;;;;;;;45.63;17.70;;;;;;;2.96;77.61;100832.03;5073984;28;20378;-42
2023/02/15 04:37:33;;;;;;;43.58;16.38;;;;;;;2.98;77.12;100838.13;5076153;28;20080;-42
2023/02/15 04:39:59;;;;;;;46.38;17.08;;;;;;;3.00;77.37;100836.47;5073720;28;20137;-42
2023/02/15 04:42:27;;;;;;;42.38;17.70;;;;;;;3.02;77.32;100833.97;5076755;28;20457;-42
2023/02/15 04:44:54;;;;;;;47.70;16.33;;;;;;;3.03;78.16;100825.47;5079713;28;20097;-42
2023/02/15 04:47:20;;;;;;;48.22;18.80;;;;;;;3.05;78.20;100822.19;5079619;28;20512;-41
2023/02/15 04:49:47;;;;;;;53.80;18.67;;;;;;;3.07;78.08;100812.88;5066592;28;20138;-42
2023/02/15 04:52:14;;;;;;;50.35;18.85;;;;;;;3.09;77.81;100820.63;5060529;28;20292;-42
2023/02/15 04:54:40;;;;;;;47.95;17.55;;;;;;;3.13;78.16;100806.25;5062236;28;20496;-42
2023/02/15 04:57:07;;;;;;;51.28;18.83;;;;;;;3.16;78.10;100816.63;5063735;28;20076;-41
2023/02/15 04:59:33;;;;;;;51.45;19.25;;;;;;;3.18;77.71;100820.97;5062104;28;20084;-41
2023/02/15 05:02:00;;;;;;;49.30;17.30;;;;;;;3.19;77.29;100814.19;5058800;28;20084;-41
2023/02/15 05:04:27;;;;;;;47.50;17.73;;;;;;;3.20;77.00;100813.38;5059325;28;20076;-42
2023/02/15 05:06:53;;;;;;;49.47;17.95;;;;;;;3.23;77.76;100816.06;5059918;28;20129;-42
2023/02/15 05:09:20;;;;;;;48.70;18.55;;;;;;;3.23;77.05;100808.38;5064901;28;20300;-42
2023/02/15 05:11:47;;;;;;;46.38;17.38;;;;;;;3.22;77.96;100807.47;5059708;28;20052;-42
2023/02/15 05:14:13;;;;;;;50.28;17.77;;;;;;;3.26;77.83;100803.38;5065967;28;20102;-42
2023/02/15 05:16:40;;;;;;;57.28;20.45;;;;;;;3.26;77.92;100798.25;5061359;28;20155;-42
2023/02/15 05:19:07;;;;;;;55.58;20.75;;;;;;;3.28;78.33;100799.16;5063831;28;20050;-41
2023/02/15 05:21:33;;;;;;;49.53;19.58;;;;;;;3.28;77.74;100796.63;5052609;28;20565;-41
2023/02/15 05:24:00;;;;;;;54.53;18.08;;;;;;;3.28;78.20;100796.63;5059558;28;20129;-40
2023/02/15 05:29:13;;;;;;;59.33;19.52;;;;;;;3.26;77.73;100782.88;5063690;28;20332;-41
2023/02/15 05:31:40;;;;;;;51.95;18.08;;;;;;;3.27;78.56;100779.50;5062108;28;20048;-41
2023/02/15 05:34:07;;;;;;;56.95;19.23;;;;;;;3.26;78.52;100770.09;5061305;28;21160;-41
2023/02/15 05:36:33;;;;;;;53.13;19.15;;;;;;;3.26;78.50;100766.66;5066973;28;20040;-50
2023/02/15 05:39:00;;;;;;;58.50;19.38;;;;;;;3.25;78.15;100770.91;5060627;28;20048;-41
2023/02/15 05:41:27;;;;;;;50.40;19.67;;;;;;;3.25;78.34;100781.16;5058123;28;20114;-41
2023/02/15 05:43:55;;;;;;;57.67;18.88;;;;;;;3.28;77.85;100770.16;5062454;28;20080;-41
2023/02/15 05:46:22;;;;;;;60.63;19.23;;;;;;;3.27;78.29;100770.97;5056759;28;20049;-41
2023/02/15 05:48:48;;;;;;;50.08;18.35;;;;;;;3.27;78.68;100774.38;5059910;28;20098;-41
2023/02/15 05:51:16;;;;;;;55.13;18.63;;;;;;;3.27;78.11;100779.50;5062964;28;20433;-41
2023/02/15 05:53:43;;;;;;;52.00;17.50;;;;;;;3.21;77.81;100771.59;5061954;28;20048;-41
2023/02/15 05:56:11;;;;;;;56.00;18.60;;;;;;;3.24;78.80;100778.53;5059885;28;20110;-41
2023/02/15 05:58:40;;;;;;;55.42;20.48;;;;;;;3.26;78.77;100777.78;5058933;28;20412;-41
2023/02/15 06:03:45;;;;;;;76.55;28.75;;;;;;;3.69;77.88;100770.81;5037376;28;20418;-41
2023/02/15 06:06:12;;;;;;;63.22;22.98;;;;;;;3.45;78.12;100765.69;5012447;28;20049;-42
2023/02/15 06:08:38;;;;;;;60.97;24.00;;;;;;;3.37;78.32;100767.94;5002262;28;20104;-42
2023/02/15 06:11:05;;;;;;;60.50;20.73;;;;;;;3.34;78.23;100765.25;5004398;28;20469;-42
2023/02/15 06:13:33;;;;;;;49.92;19.27;;;;;;;3.32;78.67;100767.75;5014305;28;20121;-42
2023/02/15 06:16:03;;;;;;;58.25;19.50;;;;;;;3.29;78.73;100766.78;4999909;28;20494;-42
2023/02/15 06:18:30;;;;;;;52.78;19.73;;;;;;;3.26;77.80;100772.66;4999180;28;20522;-41
2023/02/15 06:20:57;;;;;;;53.85;18.80;;;;;;;3.20;77.84;100777.53;4998341;28;20562;-42
2023/02/15 06:23:23;;;;;;;66.80;22.00;;;;;;;3.20;78.43;100775.84;5002778;28;20741;-42
2023/02/15 06:25:50;;;;;;;53.72;19.67;;;;;;;3.16;79.13;100773.97;5008695;28;20146;-41
2023/02/15 06:28:17;;;;;;;42.55;15.57;;;;;;;3.12;78.46;100774.66;5011250;28;20078;-42
2023/02/15 06:30:43;;;;;;;51.88;19.00;;;;;;;3.13;78.98;100775.53;5005967;28;20705;-42
2023/02/15 06:33:10;;;;;;;52.80;18.13;;;;;;;3.07;79.34;100779.59;5008015;28;20124;-42
2023/02/15 06:35:36;;;;;;;61.28;19.40;;;;;;;3.10;79.00;100780.56;5012076;28;20153;-42
2023/02/15 06:38:03;;;;;;;54.85;21.77;;;;;;;3.10;78.05;100775.44;5009338;28;20046;-42
2023/02/15 06:40:30;;;;;;;58.00;23.15;;;;;;;3.10;78.45;100775.44;5002563;28;20501;-42
2023/02/15 06:42:56;;;;;;;46.90;19.83;;;;;;;3.10;78.77;100785.66;5009309;28;20512;-42
2023/02/15 06:45:23;;;;;;;57.10;21.05;;;;;;;3.11;78.65;100782.28;5007286;28;20181;-41
2023/02/15 06:47:49;;;;;;;58.40;18.60;;;;;;;3.11;78.61;100782.28;4999475;28;20046;-41
2023/02/15 06:50:16;;;;;;;53.55;20.30;;;;;;;3.13;78.48;100784.09;5005975;28;20107;-42
2023/02/15 06:52:42;;;;;;;54.28;19.23;;;;;;;3.14;78.75;100782.41;5011647;28;20381;-42
2023/02/15 06:55:09;;;;;;;56.78;21.35;;;;;;;3.14;78.64;100787.53;5014967;28;20119;-42
2023/02/15 06:57:36;;;;;;;58.78;21.10;;;;;;;3.15;77.79;100794.41;5006658;28;20054;-41
2023/02/15 07:00:04;;;;;;;63.15;21.05;;;;;;;3.17;78.01;100792.75;5009941;28;20074;-41
2023/02/15 07:02:33;;;;;;;55.15;23.25;;;;;;;3.17;77.76;100790.19;5001816;28;20409;-41
2023/02/15 07:04:59;;;;;;;59.50;19.73;;;;;;;3.16;78.38;100791.91;4998690;28;20141;-41
2023/02/15 07:07:26;;;;;;;56.50;23.65;;;;;;;3.18;78.71;100790.25;5006900;28;20231;-42
2023/02/15 07:09:52;;;;;;;52.97;20.60;;;;;;;3.19;77.36;100791.13;5004069;28;20049;-42
2023/02/15 07:12:52;;;;;;;57.38;19.70;;;;;;;3.18;77.31;100795.38;5005783;28;20042;-41
2023/02/15 07:15:07;;;;;;;56.40;19.20;;;;;;;3.18;78.17;100784.28;4989484;28;20078;-42
2023/02/15 07:17:34;;;;;;;55.30;19.45;;;;;;;3.17;78.17;100782.50;5001638;28;20084;-42
2023/02/15 07:20:04;;;;;;;54.80;20.92;;;;;;;3.16;78.14;100788.44;4990154;28;20129;-41
2023/02/15 07:22:33;;;;;;;55.60;18.65;;;;;;;3.16;77.48;100783.34;4991737;28;20046;-41
2023/02/15 07:25:00;;;;;;;58.42;20.42;;;;;;;3.17;77.85;100785.06;4992869;28;20501;-42
2023/02/15 07:27:27;;;;;;;57.60;21.75;;;;;;;3.18;78.37;100784.28;4990102;28;20050;-41
2023/02/15 07:29:53;;;;;;;60.58;24.20;;;;;;;3.17;77.22;100785.06;4991582;28;20133;-41
2023/02/15 07:32:20;;;;;;;59.00;20.42;;;;;;;3.17;77.66;100782.50;5001051;28;20042;-41
2023/02/15 07:34:47;;;;;;;58.38;19.10;;;;;;;3.15;77.37;100784.16;4997560;28;20189;-42
2023/02/15 07:37:13;;;;;;;45.47;18.27;;;;;;;3.15;76.93;100784.16;4987516;28;20057;-42
2023/02/15 07:39:40;;;;;;;50.42;18.98;;;;;;;3.15;77.83;100784.16;5000533;28;20093;-42
2023/02/15 07:42:06;;;;;;;54.53;19.52;;;;;;;3.15;78.22;100779.03;4993777;28;20073;-42
2023/02/15 07:44:33;;;;;;;50.20;19.38;;;;;;;3.16;77.50;100778.22;4991297;28;20058;-42
2023/02/15 07:46:59;;;;;;;58.90;22.25;;;;;;;3.18;77.92;100769.78;4987726;28;20073;-41
2023/02/15 07:49:26;;;;;;;59.83;20.55;;;;;;;3.20;77.25;100767.28;4989341;28;20058;-42
2023/02/15 07:51:53;;;;;;;56.67;19.98;;;;;;;3.24;78.00;100774.25;4984847;28;20136;-42
2023/02/15 07:54:20;;;;;;;54.10;19.08;;;;;;;3.25;77.48;100786.28;4988815;28;20069;-42
2023/02/15 07:56:46;;;;;;;51.33;19.90;;;;;;;3.26;78.31;100782.88;4986522;28;20133;-42
2023/02/15 07:59:13;;;;;;;56.03;19.48;;;;;;;3.26;77.99;100782.88;4987937;28;20074;-41
2023/02/15 08:01:40;;;;;;;50.30;18.33;;;;;;;3.28;77.31;100783.81;4987359;28;20081;-41
2023/02/15 08:04:09;;;;;;;54.22;19.27;;;;;;;3.30;77.67;100778.75;4987229;28;20113;-43
2023/02/15 08:06:36;;;;;;;56.22;22.65;;;;;;;3.33;77.08;100784.88;4978477;28;20120;-41
2023/02/15 08:09:05;;;;;;;64.85;22.30;;;;;;;3.37;78.08;100775.63;4988802;28;20101;-42
2023/02/15 08:11:36;;;;;;;64.43;21.45;;;;;;;3.42;77.49;100769.00;4980411;28;20054;-42
2023/02/15 08:16:49;;;;;;;57.55;22.15;;;;;;;3.51;78.04;100768.47;4999030;27;20415;-42
2023/02/15 08:19:20;;;;;;;59.63;21.52;;;;;;;3.57;78.51;100770.38;4993028;28;20046;-42
2023/02/15 08:21:50;;;;;;;59.92;21.50;;;;;;;3.64;77.96;100763.81;4993916;28;20422;-41
2023/02/15 08:24:19;;;;;;;67.80;22.10;;;;;;;3.71;78.23;100770.88;4994698;28;20173;-43
2023/02/15 08:26:47;;;;;;;60.22;21.55;;;;;;;3.76;77.99;100759.13;4993719;28;20058;-41
2023/02/15 08:29:15;;;;;;;71.80;21.58;;;;;;;3.86;77.67;100755.22;4995468;28;20585;-42
2023/02/15 08:31:42;;;;;;;61.70;22.20;;;;;;;3.93;77.93;100751.19;4990516;28;20046;-42
2023/02/15 08:34:11;;;;;;;71.18;24.33;;;;;;;4.06;77.93;100748.22;4994472;28;20053;-42
2023/02/15 08:36:38;;;;;;;66.57;22.65;;;;;;;4.23;77.63;100746.25;4996123;28;20077;-42
2023/02/15 08:39:05;;;;;;;74.82;23.55;;;;;;;4.46;77.97;100741.03;4989106;28;20097;-42
2023/02/15 08:41:36;;;;;;;66.88;24.60;;;;;;;4.74;78.00;100741.09;4988322;28;20050;-42
2023/02/15 08:44:06;;;;;;;63.25;22.50;;;;;;;4.98;77.30;100732.41;4995927;28;20133;-43
2023/02/15 08:46:36;;;;;;;63.35;23.20;;;;;;;5.26;77.60;100731.56;5010329;28;20049;-43
2023/02/15 08:49:03;;;;;;;70.90;24.63;;;;;;;5.59;77.51;100726.50;4997968;28;20600;-42
2023/02/15 08:51:33;;;;;;;69.22;25.25;;;;;;;5.94;76.18;100724.03;5000211;28;20560;-43
2023/02/15 08:54:04;;;;;;;77.03;27.10;;;;;;;6.57;76.86;100716.25;4998588;28;20096;-43
2023/02/15 08:56:33;;;;;;;;;;;;;;;7.38;76.79;100712.03;4999677;28;20088;-42
2023/02/15 08:59:00;;;;;;;63.67;22.63;;;;;;;8.32;75.30;100720.72;4997332;28;20387;-43
2023/02/15 09:01:29;;;;;;;61.47;23.65;;;;;;;9.20;73.66;100717.78;4996687;28;20074;-43
2023/02/15 09:03:59;;;;;;;57.40;22.80;;;;;;;9.96;71.58;100715.22;4993071;28;20660;-44
2023/02/15 09:06:26;;;;;;;55.80;22.80;;;;;;;10.65;70.74;100723.66;4996824;28;20057;-43
2023/02/15 09:08:54;;;;;;;53.97;21.67;;;;;;;11.30;70.43;100721.50;4991250;28;20050;-45
2023/02/15 09:11:23;;;;;;;51.35;21.70;;;;;;;11.95;68.67;100720.84;5000869;28;20474;-43
2023/02/15 09:13:54;;;;;;;49.75;20.13;;;;;;;12.58;66.95;100732.22;4992430;28;20132;-44
2023/02/15 09:16:20;;;;;;;;;;;;;;;13.00;65.12;100726.09;4996724;28;20130;-44
2023/02/15 09:18:48;;;;;;;53.00;22.58;;;;;;;13.46;65.79;100716.44;5001869;28;19988;-44
2023/02/15 09:21:17;;;;;;;49.00;20.50;;;;;;;13.79;63.71;100721.53;4995887;28;20121;-44
2023/02/15 09:23:46;;;;;;;44.40;19.27;;;;;;;14.19;63.03;100729.06;4993080;28;20137;-46
2023/02/15 09:26:16;;;;;;;48.47;20.38;;;;;;;14.46;62.87;100721.09;4993044;28;20138;-45
2023/02/15 09:28:43;;;;;;;51.72;20.20;;;;;;;14.76;62.35;100714.72;4981953;28;20108;-44
2023/02/15 09:33:50;;;;;;;42.90;19.58;;;;;;;15.38;59.90;100723.69;5049760;27;20410;-46
2023/02/15 09:38:58;;;;;;;48.72;20.77;;;;;;;15.88;59.38;100717.81;5067523;27;20804;-45
2023/02/15 09:41:47;;;;;;;49.13;20.58;;;;;;;16.18;57.57;100715.66;5051838;28;20052;-47
2023/02/15 09:44:53;;;;;;;45.90;20.10;;;;;;;16.37;56.38;100714.50;5059527;28;20605;-47
2023/02/15 10:17:23;;;;;;;38.13;18.13;;;;;;;18.77;49.35;100688.53;5033177;27;20410;-46
2023/02/15 10:23:06;;;;;;;34.65;17.88;;;;;;;18.71;48.62;100684.31;5043871;27;20411;-47
2023/02/15 10:26:13;;;;;;;39.17;17.98;;;;;;;18.84;50.73;100691.84;5042169;28;20077;-50
2023/02/15 10:29:04;;;;;;;37.67;17.50;;;;;;;18.94;49.34;100684.59;5036619;28;20515;-49
2023/02/15 10:31:50;;;;;;;36.80;18.98;;;;;;;18.89;49.19;100689.97;5059025;28;20132;-47
2023/02/15 10:34:26;;;;;;;30.27;14.82;;;;;;;18.80;49.22;100679.72;5036012;28;20050;-49
2023/02/15 10:40:23;;;;;;;36.08;20.05;;;;;;;18.62;48.88;100663.59;5079818;27;20405;-47
2023/02/15 10:45:41;;;;;;;33.17;16.88;;;;;;;18.61;48.69;100681.06;5081191;27;20423;-45
2023/02/15 10:48:48;;;;;;;32.35;15.80;;;;;;;18.79;49.42;100675.38;5033851;28;20049;-45
2023/02/15 10:51:29;;;;;;;35.72;16.38;;;;;;;18.92;49.27;100671.53;5047711;28;20052;-45
2023/02/15 10:54:12;;;;;;;31.38;15.57;;;;;;;18.88;48.91;100675.16;5069141;28;20561;-47
2023/02/15 11:05:48;;;;;;;30.33;15.88;;;;;;;18.21;48.38;100675.06;5073589;27;20419;-46
2023/02/15 11:08:16;;;;;;;36.95;15.20;;;;;;;17.67;49.69;100669.31;5060265;28;20048;-48
2023/02/15 11:10:51;;;;;;;32.40;15.40;;;;;;;17.18;50.28;100685.19;5068181;28;20094;-47
2023/02/15 11:13:22;;;;;;;33.90;15.20;;;;;;;16.81;50.65;100688.47;5065149;28;20164;-45
2023/02/15 11:16:02;;;;;;;30.23;14.90;;;;;;;16.45;51.20;100697.81;5065560;28;20062;-47
2023/02/15 11:23:44;;;;;;;36.65;18.88;;;;;;;16.11;52.36;100693.13;5084547;27;20412;-48
2023/02/15 11:26:18;;;;;;;39.25;17.33;;;;;;;15.87;53.47;100695.19;5068976;28;20049;-46
2023/02/15 11:28:51;;;;;;;35.95;16.80;;;;;;;15.75;53.67;100690.16;5037630;28;20053;-46
2023/02/15 11:31:22;;;;;;;29.73;14.02;;;;;;;15.63;54.04;100681.59;5051791;28;20527;-47
2023/02/15 11:33:56;;;;;;;28.45;13.45;;;;;;;15.39;54.01;100690.59;5053728;28;20040;-47
2023/02/15 11:36:27;;;;;;;32.65;13.02;;;;;;;15.16;54.96;100684.78;5055855;28;20164;-47
2023/02/15 11:39:00;;;;;;;31.20;13.88;;;;;;;15.02;54.73;100678.84;5058051;28;20450;-45
2023/02/15 11:41:31;;;;;;;29.90;13.50;;;;;;;14.94;55.16;100675.47;5050550;28;20052;-47
2023/02/15 11:44:06;;;;;;;30.05;13.55;;;;;;;14.88;55.64;100672.06;5054666;28;20057;-46
2023/02/15 11:46:32;;;;;;;28.55;13.45;;;;;;;14.76;56.01;100666.94;5056192;28;20052;-47
2023/02/15 11:48:59;;;;;;;31.92;14.65;;;;;;;14.71;56.30;100660.91;5056035;28;20047;-47
2023/02/15 11:51:28;;;;;;;34.47;14.35;;;;;;;14.60;56.57;100661.88;5053608;28;20135;-50
2023/02/15 11:53:56;;;;;;;30.88;15.00;;;;;;;14.44;56.67;100661.16;5060026;28;20127;-47
2023/02/15 11:56:24;;;;;;;30.60;13.90;;;;;;;14.29;56.71;100656.94;5053114;28;20078;-48
2023/02/15 12:04:24;;;;;;;34.50;14.63;;;;;;;14.00;58.30;100645.88;5024739;27;20407;-46
2023/02/15 12:06:57;;;;;;;33.72;14.77;;;;;;;14.00;58.04;100638.06;4977205;28;20043;-47
2023/02/15 12:12:24;;;;;;;28.17;14.63;;;;;;;13.88;58.35;100640.75;5046242;27;20785;-46
2023/02/15 12:14:53;;;;;;;29.45;14.32;;;;;;;13.85;58.62;100640.78;4994241;28;20050;-49
2023/02/15 12:17:23;;;;;;;30.63;15.80;;;;;;;13.81;58.15;100639.91;4999554;28;20074;-45
2023/02/15 12:19:53;;;;;;;28.98;14.43;;;;;;;13.78;58.15;100639.94;4995995;28;20066;-46
2023/02/15 12:25:02;;;;;;;28.77;12.25;;;;;;;13.86;58.87;100622.56;5032414;27;20406;-47
2023/02/15 12:27:32;;;;;;;33.28;13.43;;;;;;;13.87;59.02;100633.81;5022239;28;20687;-46
2023/02/15 12:30:03;;;;;;;28.33;12.05;;;;;;;13.88;58.50;100631.19;5014453;28;20121;-48
2023/02/15 12:32:35;;;;;;;34.38;14.82;;;;;;;13.77;59.28;100627.81;5019643;28;20052;-47
2023/02/15 12:35:13;;;;;;;31.55;14.05;;;;;;;13.77;59.53;100627.81;5018064;28;20568;-47
2023/02/15 12:37:53;;;;;;;29.73;13.60;;;;;;;13.74;60.15;100633.03;5021549;28;20497;-48
2023/02/15 12:40:27;;;;;;;30.73;12.90;;;;;;;13.75;60.14;100629.56;5018333;28;20049;-46
2023/02/15 12:42:58;;;;;;;28.67;12.50;;;;;;;13.74;60.04;100633.03;5016947;28;20054;-48
2023/02/15 12:48:20;;;;;;;29.48;13.45;;;;;;;13.65;59.47;100638.31;5085193;27;20734;-45
2023/02/15 12:50:49;;;;;;;30.08;12.65;;;;;;;13.71;59.87;100633.06;5034021;28;20057;-47
2023/02/15 12:53:32;;;;;;;27.20;11.48;;;;;;;13.73;59.79;100631.31;5028036;28;20049;-46
2023/02/15 12:56:02;;;;;;;26.98;11.98;;;;;;;13.77;60.24;100621.75;5071338;28;20324;-46
2023/02/15 12:58:31;;;;;;;21.98;9.63;;;;;;;13.82;60.83;100620.81;5072736;28;20531;-47
2023/02/15 13:01:10;;;;;;;29.67;10.20;;;;;;;13.82;60.63;100617.38;5073990;28;20189;-45
2023/02/15 13:04:06;;;;;;;21.33;11.55;;;;;;;13.84;60.85;100613.00;5076754;28;20407;-46
2023/02/15 13:06:36;;;;;;;25.25;11.35;;;;;;;13.91;60.63;100613.84;5088587;28;20226;-46
2023/02/15 13:09:17;;;;;;;22.75;9.07;;;;;;;13.91;59.89;100593.84;5088042;28;20097;-47
2023/02/15 13:11:45;;;;;;;27.23;10.18;;;;;;;13.95;60.23;100603.38;5093530;28;21028;-46
2023/02/15 13:14:26;;;;;;;23.10;9.93;;;;;;;13.94;60.24;100598.16;5093661;28;20047;-47
2023/02/15 13:16:58;;;;;;;25.67;9.30;;;;;;;13.97;60.19;100600.75;5096363;28;20056;-47
2023/02/15 13:22:12;;;;;;;21.10;8.07;;;;;;;13.96;60.34;100602.50;5023781;28;20421;-47
2023/02/15 13:24:43;;;;;;;14.93;7.30;;;;;;;13.99;60.04;100599.00;4993054;28;20494;-46
2023/02/15 13:27:17;;;;;;;18.27;7.90;;;;;;;14.09;59.93;100592.81;4996132;28;20050;-47
2023/02/15 13:29:49;;;;;;;17.98;6.80;;;;;;;14.17;59.96;100589.28;4989244;28;20202;-47
2023/02/15 13:35:02;;;;;;;17.83;7.68;;;;;;;14.25;59.48;100582.28;5082721;27;20403;-46
2023/02/15 13:38:11;;;;;;;15.77;7.05;;;;;;;14.18;59.72;100578.03;5048096;28;20037;-47
2023/02/15 13:40:50;;;;;;;18.00;8.05;;;;;;;14.13;59.88;100573.72;5022617;28;20041;-47
2023/02/15 13:49:31;;;;;;;14.35;6.07;;;;;;;13.94;60.41;100565.19;5045427;28;20803;-46
2023/02/15 14:01:08;;;;;;;20.90;6.57;;;;;;;13.84;60.86;100567.00;5017730;28;20929;-46
2023/02/15 14:14:42;;;;;;;17.75;8.20;;;;;;;13.74;61.57;100567.94;5005783;28;20447;-45
2023/02/15 14:17:31;;;;;;;18.85;8.13;;;;;;;13.68;61.08;100565.41;4990953;28;20065;-45
2023/02/15 14:20:08;;;;;;;18.65;8.27;;;;;;;13.70;60.67;100563.63;5002058;28;20120;-46
2023/02/15 14:22:42;;;;;;;22.77;7.40;;;;;;;13.70;60.96;100563.63;5001402;28;20298;-45
2023/02/15 14:28:27;;;;;;;18.73;9.05;;;;;;;13.88;61.01;100562.63;5055914;27;20434;-45
2023/02/15 14:30:55;;;;;;;17.92;7.07;;;;;;;13.74;61.86;100560.13;5037056;28;20045;-46